Terminal Aerodrome Forecast
Issued by NWS St Louis, MO

Home | Current Version | Previous Version | Text Only | Print | Product List | Glossary On
Versions: 1 2 3 4 5 6 7 8 9 10 11 12 13 14 15 16 17 18 19 20 21 22 23 24 25 26
000
FTUS43 KLSX 150900 AAA
TAFSTL
TAF AMD
KSTL 150902Z 1509/1612 13005KT P6SM BKN050
     FM151400 18007KT P6SM VCSH BKN050
     FM152100 27009KT P6SM -SHRA VCTS SCT015 BKN040CB
     FM160100 35012KT P6SM BKN015=

USA.gov is the U.S. government's official web portal to all federal, state and local government web resources and services.